sensor_id;sensor_type;location;lat;lon;timestamp;P1;durP1;ratioP1;P2;durP2;ratioP2
20758;SDS011;10539;53.686;9.158;2022-07-22T00:01:17;3.93;;;2.27;;
20758;SDS011;10539;53.686;9.158;2022-07-22T00:03:42;6.27;;;2.50;;
20758;SDS011;10539;53.686;9.158;2022-07-22T00:06:08;5.40;;;2.73;;
20758;SDS011;10539;53.686;9.158;2022-07-22T00:08:34;9.60;;;2.70;;
20758;SDS011;10539;53.686;9.158;2022-07-22T00:11:01;8.13;;;2.67;;
20758;SDS011;10539;53.686;9.158;2022-07-22T00:13:27;7.47;;;2.43;;
20758;SDS011;10539;53.686;9.158;2022-07-22T00:15:52;7.40;;;2.40;;
20758;SDS011;10539;53.686;9.158;2022-07-22T00:18:18;9.07;;;1.73;;
20758;SDS011;10539;53.686;9.158;2022-07-22T00:20:44;8.10;;;2.00;;
20758;SDS011;10539;53.686;9.158;2022-07-22T00:23:10;4.33;;;1.40;;
20758;SDS011;10539;53.686;9.158;2022-07-22T00:25:35;7.27;;;1.87;;
20758;SDS011;10539;53.686;9.158;2022-07-22T00:28:01;6.17;;;1.73;;
20758;SDS011;10539;53.686;9.158;2022-07-22T00:30:27;5.37;;;1.67;;
20758;SDS011;10539;53.686;9.158;2022-07-22T00:32:52;8.40;;;1.77;;
20758;SDS011;10539;53.686;9.158;2022-07-22T00:35:18;2.90;;;1.20;;
20758;SDS011;10539;53.686;9.158;2022-07-22T00:37:44;5.90;;;1.47;;
20758;SDS011;10539;53.686;9.158;2022-07-22T00:40:10;6.87;;;1.37;;
20758;SDS011;10539;53.686;9.158;2022-07-22T00:42:36;5.17;;;1.40;;
20758;SDS011;10539;53.686;9.158;2022-07-22T00:45:01;7.10;;;1.63;;
20758;SDS011;10539;53.686;9.158;2022-07-22T00:47:27;10.57;;;2.13;;
20758;SDS011;10539;53.686;9.158;2022-07-22T00:49:53;7.63;;;2.17;;
20758;SDS011;10539;53.686;9.158;2022-07-22T00:52:19;12.17;;;2.43;;
20758;SDS011;10539;53.686;9.158;2022-07-22T00:54:46;10.73;;;2.47;;
20758;SDS011;10539;53.686;9.158;2022-07-22T00:57:12;9.80;;;2.60;;
20758;SDS011;10539;53.686;9.158;2022-07-22T00:59:38;8.30;;;2.40;;
20758;SDS011;10539;53.686;9.158;2022-07-22T01:02:04;7.37;;;2.53;;
20758;SDS011;10539;53.686;9.158;2022-07-22T01:04:30;12.17;;;2.83;;
20758;SDS011;10539;53.686;9.158;2022-07-22T01:06:56;12.10;;;3.43;;
20758;SDS011;10539;53.686;9.158;2022-07-22T01:09:22;7.23;;;2.87;;
20758;SDS011;10539;53.686;9.158;2022-07-22T01:11:47;7.17;;;3.07;;
20758;SDS011;10539;53.686;9.158;2022-07-22T01:14:16;6.73;;;2.77;;
20758;SDS011;10539;53.686;9.158;2022-07-22T01:16:41;12.37;;;3.30;;
20758;SDS011;10539;53.686;9.158;2022-07-22T01:19:07;10.77;;;3.53;;
20758;SDS011;10539;53.686;9.158;2022-07-22T01:21:33;10.37;;;2.80;;
20758;SDS011;10539;53.686;9.158;2022-07-22T01:23:59;12.53;;;3.27;;
20758;SDS011;10539;53.686;9.158;2022-07-22T01:26:24;9.93;;;2.53;;
20758;SDS011;10539;53.686;9.158;2022-07-22T01:28:50;8.47;;;3.20;;
20758;SDS011;10539;53.686;9.158;2022-07-22T01:31:16;9.27;;;2.33;;
20758;SDS011;10539;53.686;9.158;2022-07-22T01:33:42;6.67;;;2.50;;
20758;SDS011;10539;53.686;9.158;2022-07-22T01:36:08;9.27;;;2.60;;
20758;SDS011;10539;53.686;9.158;2022-07-22T01:38:33;10.23;;;2.43;;
20758;SDS011;10539;53.686;9.158;2022-07-22T01:40:59;11.63;;;2.97;;
20758;SDS011;10539;53.686;9.158;2022-07-22T01:43:25;9.87;;;2.87;;
20758;SDS011;10539;53.686;9.158;2022-07-22T01:45:51;9.40;;;2.83;;
20758;SDS011;10539;53.686;9.158;2022-07-22T01:48:18;10.77;;;2.60;;
20758;SDS011;10539;53.686;9.158;2022-07-22T01:50:45;9.20;;;2.63;;
20758;SDS011;10539;53.686;9.158;2022-07-22T01:53:11;9.17;;;2.23;;
20758;SDS011;10539;53.686;9.158;2022-07-22T01:55:37;8.40;;;2.27;;
20758;SDS011;10539;53.686;9.158;2022-07-22T01:58:03;13.77;;;2.70;;
20758;SDS011;10539;53.686;9.158;2022-07-22T02:00:29;8.37;;;2.53;;
20758;SDS011;10539;53.686;9.158;2022-07-22T02:02:56;10.27;;;2.87;;
20758;SDS011;10539;53.686;9.158;2022-07-22T02:05:22;10.03;;;2.67;;
20758;SDS011;10539;53.686;9.158;2022-07-22T02:07:48;9.83;;;2.67;;
20758;SDS011;10539;53.686;9.158;2022-07-22T02:10:13;10.03;;;2.33;;
20758;SDS011;10539;53.686;9.158;2022-07-22T02:12:39;11.20;;;2.90;;
20758;SDS011;10539;53.686;9.158;2022-07-22T02:15:05;14.47;;;2.63;;
20758;SDS011;10539;53.686;9.158;2022-07-22T02:17:34;14.27;;;2.60;;
20758;SDS011;10539;53.686;9.158;2022-07-22T02:20:01;11.83;;;2.90;;
20758;SDS011;10539;53.686;9.158;2022-07-22T02:22:27;16.77;;;3.77;;
20758;SDS011;10539;53.686;9.158;2022-07-22T02:24:54;13.40;;;2.70;;
20758;SDS011;10539;53.686;9.158;2022-07-22T02:27:21;9.67;;;2.50;;
20758;SDS011;10539;53.686;9.158;2022-07-22T02:29:48;12.30;;;2.53;;
20758;SDS011;10539;53.686;9.158;2022-07-22T02:32:14;7.20;;;2.20;;
20758;SDS011;10539;53.686;9.158;2022-07-22T02:34:39;8.13;;;2.43;;
20758;SDS011;10539;53.686;9.158;2022-07-22T02:37:05;12.17;;;2.70;;
20758;SDS011;10539;53.686;9.158;2022-07-22T02:39:31;12.40;;;3.20;;
20758;SDS011;10539;53.686;9.158;2022-07-22T02:41:56;9.87;;;2.57;;
20758;SDS011;10539;53.686;9.158;2022-07-22T02:44:22;10.70;;;2.83;;
20758;SDS011;10539;53.686;9.158;2022-07-22T02:46:48;14.03;;;2.97;;
20758;SDS011;10539;53.686;9.158;2022-07-22T02:49:14;11.93;;;2.90;;
20758;SDS011;10539;53.686;9.158;2022-07-22T02:51:40;16.80;;;3.07;;
20758;SDS011;10539;53.686;9.158;2022-07-22T02:54:05;16.87;;;3.03;;
20758;SDS011;10539;53.686;9.158;2022-07-22T02:56:31;11.30;;;2.97;;
20758;SDS011;10539;53.686;9.158;2022-07-22T02:58:57;14.43;;;2.80;;
20758;SDS011;10539;53.686;9.158;2022-07-22T03:01:22;13.63;;;3.00;;
20758;SDS011;10539;53.686;9.158;2022-07-22T03:03:48;9.47;;;2.90;;
20758;SDS011;10539;53.686;9.158;2022-07-22T03:06:14;16.53;;;3.03;;
20758;SDS011;10539;53.686;9.158;2022-07-22T03:08:40;11.10;;;2.60;;
20758;SDS011;10539;53.686;9.158;2022-07-22T03:11:05;12.47;;;3.00;;
20758;SDS011;10539;53.686;9.158;2022-07-22T03:13:31;12.53;;;3.50;;
20758;SDS011;10539;53.686;9.158;2022-07-22T03:15:57;10.67;;;3.13;;
20758;SDS011;10539;53.686;9.158;2022-07-22T03:18:23;9.27;;;3.33;;
20758;SDS011;10539;53.686;9.158;2022-07-22T03:20:49;10.73;;;3.13;;
20758;SDS011;10539;53.686;9.158;2022-07-22T03:23:15;7.87;;;2.70;;
20758;SDS011;10539;53.686;9.158;2022-07-22T03:25:40;13.60;;;3.13;;
20758;SDS011;10539;53.686;9.158;2022-07-22T03:28:06;11.67;;;2.63;;
20758;SDS011;10539;53.686;9.158;2022-07-22T03:30:32;12.33;;;3.53;;
20758;SDS011;10539;53.686;9.158;2022-07-22T03:32:58;13.57;;;3.23;;
20758;SDS011;10539;53.686;9.158;2022-07-22T03:35:24;9.70;;;3.00;;
20758;SDS011;10539;53.686;9.158;2022-07-22T03:37:50;16.07;;;3.40;;
20758;SDS011;10539;53.686;9.158;2022-07-22T03:40:16;10.27;;;3.10;;
20758;SDS011;10539;53.686;9.158;2022-07-22T03:42:42;8.50;;;3.23;;
20758;SDS011;10539;53.686;9.158;2022-07-22T03:45:08;19.93;;;3.20;;
20758;SDS011;10539;53.686;9.158;2022-07-22T03:47:34;14.33;;;3.60;;
20758;SDS011;10539;53.686;9.158;2022-07-22T03:50:00;17.43;;;3.63;;
20758;SDS011;10539;53.686;9.158;2022-07-22T03:52:27;12.17;;;2.93;;
20758;SDS011;10539;53.686;9.158;2022-07-22T03:54:53;12.57;;;3.40;;
20758;SDS011;10539;53.686;9.158;2022-07-22T03:57:19;13.33;;;3.23;;
20758;SDS011;10539;53.686;9.158;2022-07-22T03:59:45;9.23;;;2.83;;
20758;SDS011;10539;53.686;9.158;2022-07-22T04:02:11;12.50;;;3.50;;
20758;SDS011;10539;53.686;9.158;2022-07-22T04:04:37;17.50;;;3.47;;
20758;SDS011;10539;53.686;9.158;2022-07-22T04:07:03;14.43;;;3.33;;
20758;SDS011;10539;53.686;9.158;2022-07-22T04:09:29;15.03;;;3.50;;
20758;SDS011;10539;53.686;9.158;2022-07-22T04:11:55;14.37;;;3.50;;
20758;SDS011;10539;53.686;9.158;2022-07-22T04:14:21;10.50;;;3.93;;
20758;SDS011;10539;53.686;9.158;2022-07-22T04:16:47;16.33;;;3.47;;
20758;SDS011;10539;53.686;9.158;2022-07-22T04:19:13;13.03;;;3.90;;
20758;SDS011;10539;53.686;9.158;2022-07-22T04:21:39;15.60;;;4.70;;
20758;SDS011;10539;53.686;9.158;2022-07-22T04:24:05;18.17;;;4.20;;
20758;SDS011;10539;53.686;9.158;2022-07-22T04:26:31;16.73;;;3.80;;
20758;SDS011;10539;53.686;9.158;2022-07-22T04:28:57;16.47;;;4.33;;
20758;SDS011;10539;53.686;9.158;2022-07-22T04:31:23;18.63;;;4.20;;
20758;SDS011;10539;53.686;9.158;2022-07-22T04:33:49;17.93;;;4.20;;
20758;SDS011;10539;53.686;9.158;2022-07-22T04:36:14;16.50;;;4.00;;
20758;SDS011;10539;53.686;9.158;2022-07-22T04:38:40;15.97;;;3.70;;
20758;SDS011;10539;53.686;9.158;2022-07-22T04:41:06;11.50;;;3.47;;
20758;SDS011;10539;53.686;9.158;2022-07-22T04:43:32;12.80;;;3.87;;
20758;SDS011;10539;53.686;9.158;2022-07-22T04:45:58;13.53;;;3.90;;
20758;SDS011;10539;53.686;9.158;2022-07-22T04:48:24;14.00;;;4.10;;
20758;SDS011;10539;53.686;9.158;2022-07-22T04:50:50;16.60;;;3.90;;
20758;SDS011;10539;53.686;9.158;2022-07-22T04:53:16;20.43;;;4.17;;
20758;SDS011;10539;53.686;9.158;2022-07-22T04:55:41;18.27;;;3.83;;
20758;SDS011;10539;53.686;9.158;2022-07-22T04:58:07;15.67;;;3.93;;
20758;SDS011;10539;53.686;9.158;2022-07-22T05:00:33;18.87;;;3.77;;
20758;SDS011;10539;53.686;9.158;2022-07-22T05:02:59;13.77;;;3.53;;
20758;SDS011;10539;53.686;9.158;2022-07-22T05:05:25;13.50;;;3.00;;
20758;SDS011;10539;53.686;9.158;2022-07-22T05:07:50;17.43;;;4.10;;
20758;SDS011;10539;53.686;9.158;2022-07-22T05:10:16;17.73;;;3.50;;
20758;SDS011;10539;53.686;9.158;2022-07-22T05:12:42;9.90;;;3.37;;
20758;SDS011;10539;53.686;9.158;2022-07-22T05:15:08;15.23;;;3.53;;
20758;SDS011;10539;53.686;9.158;2022-07-22T05:17:34;17.73;;;3.07;;
20758;SDS011;10539;53.686;9.158;2022-07-22T05:20:01;11.03;;;3.10;;
20758;SDS011;10539;53.686;9.158;2022-07-22T05:22:28;11.33;;;3.40;;
20758;SDS011;10539;53.686;9.158;2022-07-22T05:24:54;28.17;;;3.97;;
20758;SDS011;10539;53.686;9.158;2022-07-22T05:27:20;13.50;;;3.00;;
20758;SDS011;10539;53.686;9.158;2022-07-22T05:29:45;12.83;;;2.97;;
20758;SDS011;10539;53.686;9.158;2022-07-22T05:32:11;14.27;;;2.80;;
20758;SDS011;10539;53.686;9.158;2022-07-22T05:34:37;12.83;;;2.73;;
20758;SDS011;10539;53.686;9.158;2022-07-22T05:37:02;14.90;;;3.80;;
20758;SDS011;10539;53.686;9.158;2022-07-22T05:39:28;20.60;;;3.13;;
20758;SDS011;10539;53.686;9.158;2022-07-22T05:41:54;13.43;;;3.07;;
20758;SDS011;10539;53.686;9.158;2022-07-22T05:44:19;11.70;;;2.83;;
20758;SDS011;10539;53.686;9.158;2022-07-22T05:46:45;13.93;;;2.70;;
20758;SDS011;10539;53.686;9.158;2022-07-22T05:49:11;17.87;;;3.03;;
20758;SDS011;10539;53.686;9.158;2022-07-22T05:51:36;17.43;;;3.03;;
20758;SDS011;10539;53.686;9.158;2022-07-22T05:54:02;20.63;;;2.90;;
20758;SDS011;10539;53.686;9.158;2022-07-22T05:56:29;12.63;;;2.70;;
20758;SDS011;10539;53.686;9.158;2022-07-22T05:58:54;13.67;;;2.70;;
20758;SDS011;10539;53.686;9.158;2022-07-22T06:01:21;13.47;;;2.73;;
20758;SDS011;10539;53.686;9.158;2022-07-22T06:03:47;12.47;;;2.67;;
20758;SDS011;10539;53.686;9.158;2022-07-22T06:06:13;15.53;;;2.83;;
20758;SDS011;10539;53.686;9.158;2022-07-22T06:08:39;14.03;;;3.30;;
20758;SDS011;10539;53.686;9.158;2022-07-22T06:11:05;11.10;;;2.47;;
20758;SDS011;10539;53.686;9.158;2022-07-22T06:13:31;22.07;;;3.07;;
20758;SDS011;10539;53.686;9.158;2022-07-22T06:15:57;16.33;;;3.43;;
20758;SDS011;10539;53.686;9.158;2022-07-22T06:18:24;15.83;;;3.00;;
20758;SDS011;10539;53.686;9.158;2022-07-22T06:20:50;11.53;;;2.70;;
20758;SDS011;10539;53.686;9.158;2022-07-22T06:23:16;14.13;;;2.70;;
20758;SDS011;10539;53.686;9.158;2022-07-22T06:25:42;9.70;;;2.77;;
20758;SDS011;10539;53.686;9.158;2022-07-22T06:28:08;17.77;;;3.33;;
20758;SDS011;10539;53.686;9.158;2022-07-22T06:30:34;13.83;;;3.07;;
20758;SDS011;10539;53.686;9.158;2022-07-22T06:32:59;10.23;;;2.40;;
20758;SDS011;10539;53.686;9.158;2022-07-22T06:35:25;9.27;;;2.47;;
20758;SDS011;10539;53.686;9.158;2022-07-22T06:37:51;13.20;;;2.30;;
20758;SDS011;10539;53.686;9.158;2022-07-22T06:40:18;11.03;;;2.50;;
20758;SDS011;10539;53.686;9.158;2022-07-22T06:42:44;10.93;;;2.27;;
20758;SDS011;10539;53.686;9.158;2022-07-22T06:45:10;15.13;;;2.97;;
20758;SDS011;10539;53.686;9.158;2022-07-22T06:47:35;12.07;;;2.40;;
20758;SDS011;10539;53.686;9.158;2022-07-22T06:50:05;14.40;;;2.50;;
20758;SDS011;10539;53.686;9.158;2022-07-22T06:52:32;8.03;;;2.20;;
20758;SDS011;10539;53.686;9.158;2022-07-22T06:54:58;11.07;;;2.33;;
20758;SDS011;10539;53.686;9.158;2022-07-22T06:57:24;11.93;;;2.63;;
20758;SDS011;10539;53.686;9.158;2022-07-22T06:59:50;9.63;;;1.90;;
20758;SDS011;10539;53.686;9.158;2022-07-22T07:02:16;8.93;;;2.17;;
20758;SDS011;10539;53.686;9.158;2022-07-22T07:04:42;9.80;;;1.90;;
20758;SDS011;10539;53.686;9.158;2022-07-22T07:07:08;16.87;;;2.50;;
20758;SDS011;10539;53.686;9.158;2022-07-22T07:09:33;14.80;;;2.47;;
20758;SDS011;10539;53.686;9.158;2022-07-22T07:12:00;10.27;;;2.20;;
20758;SDS011;10539;53.686;9.158;2022-07-22T07:14:26;19.10;;;2.57;;
20758;SDS011;10539;53.686;9.158;2022-07-22T07:16:51;20.30;;;2.63;;
20758;SDS011;10539;53.686;9.158;2022-07-22T07:19:17;10.77;;;1.90;;
20758;SDS011;10539;53.686;9.158;2022-07-22T07:21:45;9.80;;;2.33;;
20758;SDS011;10539;53.686;9.158;2022-07-22T07:24:11;13.90;;;2.17;;
20758;SDS011;10539;53.686;9.158;2022-07-22T07:26:36;11.27;;;2.00;;
20758;SDS011;10539;53.686;9.158;2022-07-22T07:29:02;9.80;;;1.97;;
20758;SDS011;10539;53.686;9.158;2022-07-22T07:31:28;14.03;;;2.10;;
20758;SDS011;10539;53.686;9.158;2022-07-22T07:33:54;9.23;;;2.10;;
20758;SDS011;10539;53.686;9.158;2022-07-22T07:36:20;9.43;;;1.80;;
20758;SDS011;10539;53.686;9.158;2022-07-22T07:38:46;9.17;;;1.77;;
20758;SDS011;10539;53.686;9.158;2022-07-22T07:41:12;13.50;;;1.93;;
20758;SDS011;10539;53.686;9.158;2022-07-22T07:43:37;11.97;;;1.90;;
20758;SDS011;10539;53.686;9.158;2022-07-22T07:46:03;10.30;;;1.70;;
20758;SDS011;10539;53.686;9.158;2022-07-22T07:48:29;8.63;;;1.73;;
20758;SDS011;10539;53.686;9.158;2022-07-22T07:50:55;7.47;;;1.70;;
20758;SDS011;10539;53.686;9.158;2022-07-22T07:53:21;12.40;;;2.10;;
20758;SDS011;10539;53.686;9.158;2022-07-22T07:55:47;7.53;;;1.80;;
20758;SDS011;10539;53.686;9.158;2022-07-22T07:58:12;12.27;;;1.87;;
20758;SDS011;10539;53.686;9.158;2022-07-22T08:00:38;10.57;;;2.20;;
20758;SDS011;10539;53.686;9.158;2022-07-22T08:03:06;11.67;;;1.67;;
20758;SDS011;10539;53.686;9.158;2022-07-22T08:05:32;11.57;;;1.60;;
20758;SDS011;10539;53.686;9.158;2022-07-22T08:07:58;10.50;;;1.60;;
20758;SDS011;10539;53.686;9.158;2022-07-22T08:10:24;9.03;;;1.50;;
20758;SDS011;10539;53.686;9.158;2022-07-22T08:12:50;7.40;;;1.60;;
20758;SDS011;10539;53.686;9.158;2022-07-22T08:15:16;6.37;;;1.20;;
20758;SDS011;10539;53.686;9.158;2022-07-22T08:17:42;10.90;;;1.47;;
20758;SDS011;10539;53.686;9.158;2022-07-22T08:20:08;9.00;;;1.70;;
20758;SDS011;10539;53.686;9.158;2022-07-22T08:22:34;7.63;;;1.67;;
20758;SDS011;10539;53.686;9.158;2022-07-22T08:25:00;9.10;;;1.43;;
20758;SDS011;10539;53.686;9.158;2022-07-22T08:27:26;6.33;;;1.57;;
20758;SDS011;10539;53.686;9.158;2022-07-22T08:29:52;9.80;;;1.43;;
20758;SDS011;10539;53.686;9.158;2022-07-22T08:32:18;10.57;;;2.20;;
20758;SDS011;10539;53.686;9.158;2022-07-22T08:34:43;9.33;;;1.63;;
20758;SDS011;10539;53.686;9.158;2022-07-22T08:37:09;10.40;;;1.57;;
20758;SDS011;10539;53.686;9.158;2022-07-22T08:39:36;9.10;;;1.70;;
20758;SDS011;10539;53.686;9.158;2022-07-22T08:42:02;10.60;;;2.17;;
20758;SDS011;10539;53.686;9.158;2022-07-22T08:44:29;7.17;;;1.33;;
20758;SDS011;10539;53.686;9.158;2022-07-22T08:46:56;9.13;;;1.50;;
20758;SDS011;10539;53.686;9.158;2022-07-22T08:49:22;5.40;;;1.30;;
20758;SDS011;10539;53.686;9.158;2022-07-22T08:51:48;8.30;;;1.57;;
20758;SDS011;10539;53.686;9.158;2022-07-22T08:54:14;10.97;;;1.50;;
20758;SDS011;10539;53.686;9.158;2022-07-22T08:56:40;4.17;;;1.03;;
20758;SDS011;10539;53.686;9.158;2022-07-22T08:59:07;11.47;;;1.30;;
20758;SDS011;10539;53.686;9.158;2022-07-22T09:01:33;10.30;;;1.50;;
20758;SDS011;10539;53.686;9.158;2022-07-22T09:03:59;7.87;;;1.37;;
20758;SDS011;10539;53.686;9.158;2022-07-22T09:06:25;9.33;;;1.40;;
20758;SDS011;10539;53.686;9.158;2022-07-22T09:08:56;9.03;;;1.50;;
20758;SDS011;10539;53.686;9.158;2022-07-22T09:11:26;7.93;;;1.30;;
20758;SDS011;10539;53.686;9.158;2022-07-22T09:13:57;7.13;;;1.10;;
20758;SDS011;10539;53.686;9.158;2022-07-22T09:19:06;10.50;;;1.60;;
20758;SDS011;10539;53.686;9.158;2022-07-22T09:21:34;11.97;;;1.30;;
20758;SDS011;10539;53.686;9.158;2022-07-22T09:24:03;10.23;;;1.27;;
20758;SDS011;10539;53.686;9.158;2022-07-22T09:26:36;8.50;;;1.23;;
20758;SDS011;10539;53.686;9.158;2022-07-22T09:29:04;10.50;;;1.37;;
20758;SDS011;10539;53.686;9.158;2022-07-22T09:31:32;7.67;;;1.10;;
20758;SDS011;10539;53.686;9.158;2022-07-22T09:34:00;10.73;;;1.50;;
20758;SDS011;10539;53.686;9.158;2022-07-22T09:36:27;9.17;;;1.47;;
20758;SDS011;10539;53.686;9.158;2022-07-22T09:38:53;10.67;;;1.87;;
20758;SDS011;10539;53.686;9.158;2022-07-22T09:41:19;8.57;;;1.50;;
20758;SDS011;10539;53.686;9.158;2022-07-22T09:43:45;9.53;;;1.57;;
20758;SDS011;10539;53.686;9.158;2022-07-22T09:46:11;10.70;;;1.40;;
20758;SDS011;10539;53.686;9.158;2022-07-22T09:48:38;10.07;;;1.80;;
20758;SDS011;10539;53.686;9.158;2022-07-22T09:51:05;7.23;;;1.27;;
20758;SDS011;10539;53.686;9.158;2022-07-22T09:53:32;7.83;;;1.10;;
20758;SDS011;10539;53.686;9.158;2022-07-22T09:55:59;5.27;;;1.30;;
20758;SDS011;10539;53.686;9.158;2022-07-22T09:58:26;7.30;;;1.10;;
20758;SDS011;10539;53.686;9.158;2022-07-22T10:00:53;8.30;;;2.90;;
20758;SDS011;10539;53.686;9.158;2022-07-22T10:03:26;5.27;;;1.23;;
20758;SDS011;10539;53.686;9.158;2022-07-22T10:05:54;4.33;;;1.20;;
20758;SDS011;10539;53.686;9.158;2022-07-22T10:08:21;5.33;;;1.33;;
20758;SDS011;10539;53.686;9.158;2022-07-22T10:10:46;5.70;;;1.50;;
20758;SDS011;10539;53.686;9.158;2022-07-22T10:13:13;10.70;;;1.20;;
20758;SDS011;10539;53.686;9.158;2022-07-22T10:15:39;3.77;;;1.10;;
20758;SDS011;10539;53.686;9.158;2022-07-22T10:18:12;8.27;;;1.23;;
20758;SDS011;10539;53.686;9.158;2022-07-22T10:20:39;8.93;;;1.20;;
20758;SDS011;10539;53.686;9.158;2022-07-22T10:23:06;5.47;;;1.20;;
20758;SDS011;10539;53.686;9.158;2022-07-22T10:25:47;4.60;;;1.30;;
20758;SDS011;10539;53.686;9.158;2022-07-22T10:28:27;9.13;;;1.57;;
20758;SDS011;10539;53.686;9.158;2022-07-22T10:33:52;5.43;;;1.50;;
20758;SDS011;10539;53.686;9.158;2022-07-22T10:36:31;5.33;;;1.20;;
20758;SDS011;10539;53.686;9.158;2022-07-22T10:39:03;7.80;;;1.40;;
20758;SDS011;10539;53.686;9.158;2022-07-22T10:41:37;6.37;;;1.00;;
20758;SDS011;10539;53.686;9.158;2022-07-22T10:44:08;13.70;;;1.33;;
20758;SDS011;10539;53.686;9.158;2022-07-22T10:46:53;4.03;;;1.30;;
20758;SDS011;10539;53.686;9.158;2022-07-22T10:49:21;4.17;;;1.00;;
20758;SDS011;10539;53.686;9.158;2022-07-22T10:54:33;4.70;;;1.20;;
20758;SDS011;10539;53.686;9.158;2022-07-22T10:56:59;4.37;;;1.30;;
20758;SDS011;10539;53.686;9.158;2022-07-22T10:59:25;6.73;;;1.20;;
20758;SDS011;10539;53.686;9.158;2022-07-22T11:01:51;6.93;;;1.27;;
20758;SDS011;10539;53.686;9.158;2022-07-22T11:04:26;8.23;;;1.33;;
20758;SDS011;10539;53.686;9.158;2022-07-22T11:06:53;6.23;;;1.23;;
20758;SDS011;10539;53.686;9.158;2022-07-22T11:09:21;5.90;;;1.20;;
20758;SDS011;10539;53.686;9.158;2022-07-22T11:11:52;4.30;;;1.07;;
20758;SDS011;10539;53.686;9.158;2022-07-22T11:14:33;6.87;;;1.10;;
20758;SDS011;10539;53.686;9.158;2022-07-22T11:17:10;4.63;;;1.10;;
20758;SDS011;10539;53.686;9.158;2022-07-22T11:19:40;6.13;;;1.10;;
20758;SDS011;10539;53.686;9.158;2022-07-22T11:22:07;8.47;;;1.87;;
20758;SDS011;10539;53.686;9.158;2022-07-22T11:24:34;5.33;;;1.23;;
20758;SDS011;10539;53.686;9.158;2022-07-22T11:27:01;5.10;;;1.00;;
20758;SDS011;10539;53.686;9.158;2022-07-22T11:31:55;8.80;;;1.40;;
20758;SDS011;10539;53.686;9.158;2022-07-22T11:34:23;7.23;;;1.40;;
20758;SDS011;10539;53.686;9.158;2022-07-22T11:36:50;4.97;;;1.30;;
20758;SDS011;10539;53.686;9.158;2022-07-22T11:39:18;4.83;;;1.30;;
20758;SDS011;10539;53.686;9.158;2022-07-22T11:41:45;7.87;;;1.30;;
20758;SDS011;10539;53.686;9.158;2022-07-22T11:44:11;7.73;;;1.20;;
20758;SDS011;10539;53.686;9.158;2022-07-22T11:46:38;3.47;;;1.00;;
20758;SDS011;10539;53.686;9.158;2022-07-22T11:49:06;3.43;;;1.03;;
20758;SDS011;10539;53.686;9.158;2022-07-22T11:51:33;4.23;;;1.23;;
20758;SDS011;10539;53.686;9.158;2022-07-22T11:54:01;5.73;;;1.40;;
20758;SDS011;10539;53.686;9.158;2022-07-22T11:56:28;6.63;;;1.30;;
20758;SDS011;10539;53.686;9.158;2022-07-22T11:58:54;7.30;;;1.53;;
20758;SDS011;10539;53.686;9.158;2022-07-22T12:01:22;6.00;;;1.20;;
20758;SDS011;10539;53.686;9.158;2022-07-22T12:03:51;3.13;;;0.83;;
20758;SDS011;10539;53.686;9.158;2022-07-22T12:06:19;3.23;;;1.07;;
20758;SDS011;10539;53.686;9.158;2022-07-22T12:08:48;5.60;;;1.10;;
20758;SDS011;10539;53.686;9.158;2022-07-22T12:11:35;8.20;;;1.10;;
20758;SDS011;10539;53.686;9.158;2022-07-22T12:14:04;6.73;;;1.50;;
20758;SDS011;10539;53.686;9.158;2022-07-22T12:16:38;3.53;;;1.13;;
20758;SDS011;10539;53.686;9.158;2022-07-22T12:19:06;5.73;;;0.97;;
20758;SDS011;10539;53.686;9.158;2022-07-22T12:21:34;5.60;;;1.20;;
20758;SDS011;10539;53.686;9.158;2022-07-22T12:24:05;10.40;;;1.50;;
20758;SDS011;10539;53.686;9.158;2022-07-22T12:26:36;6.00;;;1.07;;
20758;SDS011;10539;53.686;9.158;2022-07-22T12:29:18;7.67;;;1.10;;
20758;SDS011;10539;53.686;9.158;2022-07-22T12:31:49;7.43;;;1.30;;
20758;SDS011;10539;53.686;9.158;2022-07-22T12:34:31;6.83;;;1.07;;
20758;SDS011;10539;53.686;9.158;2022-07-22T12:36:59;5.93;;;1.33;;
20758;SDS011;10539;53.686;9.158;2022-07-22T12:39:27;7.50;;;1.40;;
20758;SDS011;10539;53.686;9.158;2022-07-22T12:41:54;9.00;;;1.10;;
20758;SDS011;10539;53.686;9.158;2022-07-22T12:44:21;6.37;;;1.10;;
20758;SDS011;10539;53.686;9.158;2022-07-22T12:46:54;4.93;;;0.93;;
20758;SDS011;10539;53.686;9.158;2022-07-22T12:49:22;4.83;;;0.90;;
20758;SDS011;10539;53.686;9.158;2022-07-22T12:54:34;6.90;;;1.10;;
20758;SDS011;10539;53.686;9.158;2022-07-22T12:57:01;3.30;;;1.00;;
20758;SDS011;10539;53.686;9.158;2022-07-22T12:59:31;6.40;;;1.00;;
20758;SDS011;10539;53.686;9.158;2022-07-22T13:01:59;5.20;;;1.30;;
20758;SDS011;10539;53.686;9.158;2022-07-22T13:04:26;2.57;;;0.97;;
20758;SDS011;10539;53.686;9.158;2022-07-22T13:06:54;2.80;;;0.73;;
20758;SDS011;10539;53.686;9.158;2022-07-22T13:09:19;6.20;;;0.80;;
20758;SDS011;10539;53.686;9.158;2022-07-22T13:11:45;3.83;;;0.90;;
20758;SDS011;10539;53.686;9.158;2022-07-22T13:14:11;4.37;;;0.97;;
20758;SDS011;10539;53.686;9.158;2022-07-22T13:16:38;4.97;;;1.10;;
20758;SDS011;10539;53.686;9.158;2022-07-22T13:19:04;4.20;;;1.00;;
20758;SDS011;10539;53.686;9.158;2022-07-22T13:21:30;4.13;;;0.77;;
20758;SDS011;10539;53.686;9.158;2022-07-22T13:23:56;2.80;;;0.80;;
20758;SDS011;10539;53.686;9.158;2022-07-22T13:26:21;6.22;;;1.10;;
20758;SDS011;10539;53.686;9.158;2022-07-22T13:28:47;7.00;;;1.30;;
20758;SDS011;10539;53.686;9.158;2022-07-22T13:31:13;2.33;;;0.77;;
20758;SDS011;10539;53.686;9.158;2022-07-22T13:33:39;4.73;;;0.90;;
20758;SDS011;10539;53.686;9.158;2022-07-22T13:36:04;6.23;;;1.30;;
20758;SDS011;10539;53.686;9.158;2022-07-22T13:38:30;5.53;;;1.10;;
20758;SDS011;10539;53.686;9.158;2022-07-22T13:40:56;5.53;;;0.97;;
20758;SDS011;10539;53.686;9.158;2022-07-22T13:43:23;4.13;;;0.90;;
20758;SDS011;10539;53.686;9.158;2022-07-22T13:45:50;7.87;;;1.10;;
20758;SDS011;10539;53.686;9.158;2022-07-22T13:48:16;2.53;;;0.87;;
20758;SDS011;10539;53.686;9.158;2022-07-22T13:50:44;2.33;;;0.80;;
20758;SDS011;10539;53.686;9.158;2022-07-22T13:53:09;4.27;;;0.67;;
20758;SDS011;10539;53.686;9.158;2022-07-22T13:55:37;4.90;;;1.20;;
20758;SDS011;10539;53.686;9.158;2022-07-22T13:58:04;3.90;;;1.03;;
20758;SDS011;10539;53.686;9.158;2022-07-22T14:00:31;4.10;;;1.00;;
20758;SDS011;10539;53.686;9.158;2022-07-22T14:02:57;6.17;;;1.10;;
20758;SDS011;10539;53.686;9.158;2022-07-22T14:05:23;2.13;;;0.85;;
20758;SDS011;10539;53.686;9.158;2022-07-22T14:07:49;3.07;;;0.90;;
20758;SDS011;10539;53.686;9.158;2022-07-22T14:10:15;4.50;;;1.00;;
20758;SDS011;10539;53.686;9.158;2022-07-22T14:12:41;4.38;;;1.67;;
20758;SDS011;10539;53.686;9.158;2022-07-22T14:15:07;2.35;;;0.70;;
20758;SDS011;10539;53.686;9.158;2022-07-22T14:17:34;4.35;;;0.90;;
20758;SDS011;10539;53.686;9.158;2022-07-22T14:20:00;2.90;;;0.60;;
20758;SDS011;10539;53.686;9.158;2022-07-22T14:22:26;2.75;;;0.90;;
20758;SDS011;10539;53.686;9.158;2022-07-22T14:24:52;3.33;;;0.80;;
20758;SDS011;10539;53.686;9.158;2022-07-22T14:27:18;6.97;;;0.90;;
20758;SDS011;10539;53.686;9.158;2022-07-22T14:29:43;5.50;;;1.13;;
20758;SDS011;10539;53.686;9.158;2022-07-22T14:32:09;4.57;;;0.80;;
20758;SDS011;10539;53.686;9.158;2022-07-22T14:34:35;3.43;;;1.17;;
20758;SDS011;10539;53.686;9.158;2022-07-22T14:37:00;5.07;;;1.00;;
20758;SDS011;10539;53.686;9.158;2022-07-22T14:39:26;3.63;;;0.93;;
20758;SDS011;10539;53.686;9.158;2022-07-22T14:41:52;9.23;;;1.30;;
20758;SDS011;10539;53.686;9.158;2022-07-22T14:44:18;4.90;;;1.10;;
20758;SDS011;10539;53.686;9.158;2022-07-22T14:46:43;6.15;;;1.00;;
20758;SDS011;10539;53.686;9.158;2022-07-22T14:49:09;4.23;;;1.10;;
20758;SDS011;10539;53.686;9.158;2022-07-22T14:51:35;5.67;;;1.00;;
20758;SDS011;10539;53.686;9.158;2022-07-22T14:54:01;4.53;;;1.30;;